Time;durP1;ratioP1;P1;durP2;ratioP2;P2;SDS_P1;SDS_P2;PMS_P1;PMS_P2;Temp;Humidity;BMP_temperature;BMP_pressure;BME280_temperature;BME280_humidity;BME280_pressure;Samples;Min_cycle;Max_cycle;Signal;HPM_P1;HPM_P2
2023/04/06 00:00:48;;;;;;;9.67;5.47;;;;;;;0.41;85.64;62955.50;5031425;28;20214;-60
2023/04/06 00:03:14;;;;;;;9.30;4.87;;;;;;;0.40;86.29;62954.44;5030877;28;20558;-59
2023/04/06 00:05:39;;;;;;;7.63;4.77;;;;;;;0.49;86.45;62964.72;5031074;28;20330;-61
2023/04/06 00:08:06;;;;;;;8.67;5.50;;;;;;;0.45;85.68;62960.38;5031275;28;20244;-55
2023/04/06 00:10:31;;;;;;;6.80;4.80;;;;;;;0.34;85.86;62947.94;5031401;28;20272;-58
2023/04/06 00:12:58;;;;;;;7.60;5.40;;;;;;;0.37;85.94;62951.72;5031157;28;20630;-56
2023/04/06 00:15:23;;;;;;;6.87;5.30;;;;;;;0.40;86.11;62954.97;5031144;28;20272;-56
2023/04/06 00:17:48;;;;;;;6.43;5.20;;;;;;;0.26;86.40;62939.28;5031325;28;20259;-54
2023/04/06 00:20:15;;;;;;;6.33;5.30;;;;;;;0.39;85.75;62953.91;5031197;28;20313;-59
2023/04/06 00:22:41;;;;;;;7.60;5.40;;;;;;;0.39;85.71;62953.34;5030917;28;20201;-60
2023/04/06 00:25:06;;;;;;;6.53;5.27;;;;;;;0.41;86.02;62956.06;5030754;28;20644;-53
2023/04/06 00:27:32;;;;;;;7.67;5.03;;;;;;;0.45;86.13;62959.84;5030950;28;20280;-56
2023/04/06 00:29:57;;;;;;;6.30;5.00;;;;;;;0.40;86.36;62951.97;5013150;28;20229;-54
2023/04/06 00:32:23;;;;;;;7.00;4.90;;;;;;;0.43;86.29;62955.19;5030855;28;20636;-55
2023/04/06 00:34:48;;;;;;;8.10;5.70;;;;;;;0.45;86.29;62960.38;5031086;28;20679;-56
2023/04/06 00:37:14;;;;;;;8.63;5.80;;;;;;;0.40;86.09;62956.91;5030997;28;20185;-54
2023/04/06 00:39:39;;;;;;;10.50;5.20;;;;;;;0.47;85.93;62962.00;5013040;28;20224;-55
2023/04/06 00:42:14;;;;;;;10.70;6.33;;;;;;;0.42;86.02;62957.16;5030915;28;20182;-57
2023/04/06 00:44:41;;;;;;;7.97;5.67;;;;;;;0.43;86.39;62960.16;5030700;28;20213;-56
2023/04/06 00:47:07;;;;;;;9.60;5.73;;;;;;;0.45;86.61;62957.91;5030780;28;20197;-60
2023/04/06 00:49:33;;;;;;;8.67;5.53;;;;;;;0.44;86.86;62956.28;5030728;28;20263;-59
2023/04/06 00:51:58;;;;;;;6.90;5.57;;;;;;;0.47;86.76;62962.00;5030916;28;20193;-58
2023/04/06 00:54:24;;;;;;;9.50;6.00;;;;;;;0.68;86.10;62984.75;5038039;22;20315;-58
2023/04/06 00:56:50;;;;;;;8.00;5.53;;;;;;;0.79;85.50;62996.66;5030610;28;20550;-57
2023/04/06 00:59:15;;;;;;;7.33;5.77;;;;;;;0.60;85.42;62976.09;5030528;28;20210;-58
2023/04/06 01:01:41;;;;;;;8.77;6.43;;;;;;;0.56;85.80;62972.31;5030511;28;20673;-58
2023/04/06 01:04:06;;;;;;;8.03;5.20;;;;;;;0.64;85.79;62978.50;5030661;28;20248;-57
2023/04/06 01:06:32;;;;;;;8.33;5.37;;;;;;;0.54;85.48;62969.59;5030589;28;20185;-56
2023/04/06 01:08:57;;;;;;;7.37;5.10;;;;;;;0.58;85.22;62974.47;5030338;28;20226;-53
2023/04/06 01:11:22;;;;;;;7.27;5.10;;;;;;;0.60;85.22;62973.63;5030551;28;20190;-54
2023/04/06 01:13:48;;;;;;;6.73;4.77;;;;;;;0.53;85.39;62968.50;5030379;28;20633;-58
2023/04/06 01:16:14;;;;;;;6.43;4.57;;;;;;;0.54;85.82;62967.66;5033021;28;20251;-59
2023/04/06 01:18:39;;;;;;;9.60;5.53;;;;;;;0.55;85.33;62968.19;5033698;28;20189;-54
2023/04/06 01:21:05;;;;;;;7.90;5.10;;;;;;;0.50;86.05;62965.81;5033681;28;20571;-55
2023/04/06 01:23:31;;;;;;;6.50;5.00;;;;;;;0.41;86.19;62958.00;5015861;28;20235;-56
2023/04/06 01:25:56;;;;;;;6.87;4.93;;;;;;;0.42;86.34;62954.13;5033945;28;20225;-55
2023/04/06 01:28:21;;;;;;;6.90;5.17;;;;;;;0.46;86.58;62961.47;5033696;28;20194;-57
2023/04/06 01:30:47;;;;;;;8.80;5.37;;;;;;;0.43;86.20;62958.22;5033653;28;20225;-59
2023/04/06 01:33:12;;;;;;;7.57;5.03;;;;;;;0.51;86.26;62963.88;5033612;28;20264;-54
2023/04/06 01:35:38;;;;;;;7.87;5.20;;;;;;;0.51;86.05;62966.88;5033311;28;20221;-53
2023/04/06 01:38:03;;;;;;;5.17;4.67;;;;;;;0.56;86.29;62971.75;5033601;28;20192;-55
2023/04/06 01:40:29;;;;;;;8.03;5.03;;;;;;;0.55;86.00;62970.66;5033439;28;20217;-55
2023/04/06 01:42:54;;;;;;;6.20;4.43;;;;;;;0.67;85.98;62983.66;5033462;28;20683;-57
2023/04/06 01:45:20;;;;;;;8.17;5.03;;;;;;;0.64;85.85;62978.50;5033728;28;20213;-54
2023/04/06 01:47:46;;;;;;;7.53;4.90;;;;;;;0.65;85.99;62982.06;5033537;28;20548;-57
2023/04/06 01:50:11;;;;;;;7.03;5.27;;;;;;;0.62;86.00;62978.25;5033231;28;20274;-55
2023/04/06 01:52:37;;;;;;;6.50;4.87;;;;;;;0.60;86.03;62974.16;5033279;28;20675;-57
2023/04/06 01:55:03;;;;;;;8.43;5.30;;;;;;;0.59;86.47;62975.56;5033424;28;20222;-57
2023/04/06 01:57:28;;;;;;;6.27;4.53;;;;;;;0.58;86.13;62973.94;5033505;28;20194;-59
2023/04/06 01:59:54;;;;;;;6.20;4.60;;;;;;;0.58;85.99;62973.94;5033506;28;20209;-59
2023/04/06 02:02:19;;;;;;;7.73;4.80;;;;;;;0.66;85.33;62982.59;5033213;28;20688;-60
2023/04/06 02:04:45;;;;;;;5.63;4.57;;;;;;;0.61;85.72;62974.69;5033096;28;20601;-58
2023/04/06 02:07:10;;;;;;;6.97;5.00;;;;;;;0.58;86.14;62973.94;5033170;28;20554;-58
2023/04/06 02:09:36;;;;;;;10.70;5.53;;;;;;;0.65;85.65;62981.50;5032926;28;20206;-59
2023/04/06 02:12:01;;;;;;;7.50;4.87;;;;;;;0.70;85.66;62987.47;5033106;28;20178;-52
2023/04/06 02:14:27;;;;;;;5.50;4.47;;;;;;;0.70;85.70;62984.44;5033066;28;20280;-52
2023/04/06 02:16:53;;;;;;;6.80;4.33;;;;;;;0.65;85.64;62982.06;5033098;28;20186;-57
2023/04/06 02:19:18;;;;;;;7.27;4.60;;;;;;;0.66;85.40;62983.16;5032999;28;20213;-54
2023/04/06 02:21:43;;;;;;;7.20;5.00;;;;;;;0.65;85.19;62977.09;5032733;28;20276;-52
2023/04/06 02:24:09;;;;;;;5.70;4.47;;;;;;;0.71;85.30;62988.53;5032670;28;20221;-53
2023/04/06 02:26:34;;;;;;;6.67;4.73;;;;;;;0.66;85.25;62983.16;5032495;28;20187;-58
2023/04/06 02:29:01;;;;;;;7.67;4.80;;;;;;;0.71;85.85;62988.00;5032699;28;20245;-53
2023/04/06 02:31:27;;;;;;;6.43;4.47;;;;;;;0.64;85.46;62977.94;5032676;28;20730;-62
2023/04/06 02:33:52;;;;;;;5.10;4.40;;;;;;;0.65;85.85;62981.50;5032940;28;20317;-67
2023/04/06 02:36:18;;;;;;;5.97;4.50;;;;;;;0.69;85.54;62985.84;5032785;28;20657;-55
2023/04/06 02:38:43;;;;;;;7.67;4.70;;;;;;;0.59;85.68;62977.47;5032582;28;20677;-57
2023/04/06 02:41:09;;;;;;;6.10;4.23;;;;;;;0.67;85.68;62981.19;5032701;28;20186;-59
2023/04/06 02:43:37;;;;;;;5.87;4.40;;;;;;;0.55;85.92;62971.22;5032373;28;20248;-59
2023/04/06 02:46:02;;;;;;;8.13;4.87;;;;;;;0.56;85.69;62972.31;5032524;28;20205;-53
2023/04/06 02:48:28;;;;;;;6.37;4.73;;;;;;;0.62;85.85;62980.75;5032384;28;20197;-53
2023/04/06 02:50:53;;;;;;;6.83;4.67;;;;;;;0.69;85.67;62985.84;5032377;28;20218;-53
2023/04/06 02:53:18;;;;;;;6.67;4.73;;;;;;;0.68;85.69;62987.78;5014687;28;20244;-54
2023/04/06 02:55:44;;;;;;;7.53;4.97;;;;;;;0.53;85.92;62970.97;5014706;28;20217;-54
2023/04/06 02:58:09;;;;;;;7.87;4.80;;;;;;;0.82;85.89;63000.47;5032603;28;20667;-54
2023/04/06 03:00:35;;;;;;;7.33;4.90;;;;;;;0.83;85.42;63001.56;5032464;28;20210;-55
2023/04/06 03:03:01;;;;;;;9.77;5.10;;;;;;;0.72;85.61;62989.66;5032381;28;20198;-58
2023/04/06 03:05:26;;;;;;;7.27;5.40;;;;;;;0.80;85.64;62995.28;5032146;28;20217;-59
2023/04/06 03:07:52;;;;;;;7.33;5.50;;;;;;;0.75;85.68;62994.81;5032169;28;20194;-57
2023/04/06 03:10:17;;;;;;;9.13;5.33;;;;;;;0.73;85.68;62988.25;5032039;28;20214;-59
2023/04/06 03:12:42;;;;;;;8.67;5.70;;;;;;;0.77;85.73;62994.50;5031950;28;20247;-57
2023/04/06 03:15:09;;;;;;;6.50;4.77;;;;;;;0.74;85.39;62991.25;5031832;28;20680;-59
2023/04/06 03:17:35;;;;;;;6.40;4.80;;;;;;;0.73;85.50;62985.75;5031905;28;20192;-58
2023/04/06 03:20:00;;;;;;;7.13;5.47;;;;;;;0.75;85.51;62995.34;5032167;28;20222;-56
2023/04/06 03:22:26;;;;;;;6.77;4.93;;;;;;;0.75;85.22;62992.34;5031974;28;20210;-57
2023/04/06 03:24:51;;;;;;;7.27;4.57;;;;;;;0.73;85.29;62988.25;5032330;28;20305;-59
2023/04/06 03:27:16;;;;;;;7.00;4.20;;;;;;;0.75;85.24;62992.88;5031926;28;20196;-58
2023/04/06 03:29:42;;;;;;;6.93;5.10;;;;;;;0.69;85.48;62991.34;5031791;28;20297;-59
2023/04/06 03:32:07;;;;;;;6.57;5.23;;;;;;;0.73;85.97;62990.16;5031813;28;20208;-58
2023/04/06 03:34:33;;;;;;;6.97;4.97;;;;;;;0.76;85.47;62991.50;5031546;28;20313;-60
2023/04/06 03:36:58;;;;;;;9.30;5.20;;;;;;;0.84;85.21;62999.63;5031821;28;20651;-55
2023/04/06 03:39:23;;;;;;;8.00;5.07;;;;;;;0.74;85.31;62991.81;5031047;28;20226;-54
2023/04/06 03:41:49;;;;;;;7.33;4.30;;;;;;;0.78;85.41;62996.13;5031699;28;20280;-54
2023/04/06 03:44:15;;;;;;;7.43;4.83;;;;;;;0.74;85.58;62991.25;5031575;28;20308;-55
2023/04/06 03:46:40;;;;;;;5.23;4.33;;;;;;;0.74;85.30;62991.81;5031472;28;20190;-56
2023/04/06 03:49:06;;;;;;;9.83;5.43;;;;;;;0.76;85.48;62991.50;5031404;28;20214;-54
2023/04/06 03:51:31;;;;;;;6.73;4.73;;;;;;;0.83;84.92;62998.53;5013589;28;20194;-54
2023/04/06 03:53:57;;;;;;;6.73;4.37;;;;;;;0.78;85.00;62996.13;5031138;28;20715;-58
2023/04/06 03:56:22;;;;;;;7.10;4.03;;;;;;;0.74;84.40;62991.81;5013681;28;20228;-58
2023/04/06 03:58:50;;;;;;;7.27;4.93;;;;;;;0.65;85.01;62982.06;5031381;28;20263;-57
2023/04/06 04:01:17;;;;;;;6.13;3.83;;;;;;;0.73;85.18;62988.25;5031370;28;20194;-58
2023/04/06 04:03:43;;;;;;;5.93;4.37;;;;;;;0.76;85.04;62993.44;5031195;28;20552;-57
2023/04/06 04:06:08;;;;;;;7.03;4.40;;;;;;;0.65;84.60;62983.97;5031231;28;20183;-54
2023/04/06 04:08:35;;;;;;;7.33;4.50;;;;;;;0.70;85.50;62987.47;5031133;28;20240;-59
2023/04/06 04:11:00;;;;;;;10.50;4.20;;;;;;;0.57;85.07;62975.31;5013540;28;20186;-55
2023/04/06 04:13:26;;;;;;;5.83;4.47;;;;;;;0.79;85.20;62996.66;5031236;28;20275;-54
2023/04/06 04:15:52;;;;;;;8.23;4.40;;;;;;;0.78;84.72;62993.66;5031080;28;20293;-60
2023/04/06 04:18:18;;;;;;;7.33;4.00;;;;;;;0.83;84.65;63001.56;5031228;28;20300;-56
2023/04/06 04:20:43;;;;;;;7.13;4.30;;;;;;;0.79;84.19;62996.66;5030895;28;20317;-54
2023/04/06 04:23:09;;;;;;;7.43;4.10;;;;;;;0.70;84.82;62987.47;5031112;28;20194;-55
2023/04/06 04:25:34;;;;;;;7.20;4.97;;;;;;;0.78;84.89;62995.59;5031504;28;20206;-56
2023/04/06 04:28:00;;;;;;;6.57;4.57;;;;;;;0.89;84.94;63006.97;5031077;28;20304;-58
2023/04/06 04:30:25;;;;;;;7.63;5.10;;;;;;;0.88;85.27;63006.44;5031181;28;20198;-61
2023/04/06 04:32:50;;;;;;;9.03;5.43;;;;;;;0.97;84.58;63015.66;5031089;28;20183;-55
2023/04/06 04:35:16;;;;;;;6.40;4.70;;;;;;;0.95;84.31;63011.53;5031168;28;20284;-57
2023/04/06 04:37:41;;;;;;;7.70;4.90;;;;;;;0.91;84.24;63006.66;5030917;28;20556;-58
2023/04/06 04:40:07;;;;;;;7.87;5.30;;;;;;;0.93;84.43;63011.31;5030942;28;20210;-60
2023/04/06 04:42:34;;;;;;;7.93;5.40;;;;;;;0.94;84.00;63012.94;5030755;28;20189;-59
2023/04/06 04:44:59;;;;;;;10.63;4.97;;;;;;;0.99;84.02;63018.34;5030734;28;20210;-61
2023/04/06 04:47:25;;;;;;;8.40;4.80;;;;;;;1.05;84.38;63024.31;5030867;28;20186;-56
2023/04/06 04:49:50;;;;;;;7.10;5.40;;;;;;;1.07;83.75;63024.00;5031498;28;20214;-56
2023/04/06 04:52:15;;;;;;;7.77;5.23;;;;;;;1.16;83.57;63036.22;5034380;28;20274;-55
2023/04/06 04:54:41;;;;;;;7.03;5.20;;;;;;;1.11;83.43;63030.81;5034192;28;20686;-58
2023/04/06 04:57:06;;;;;;;6.43;4.47;;;;;;;1.10;83.07;63027.25;5034157;28;20220;-56
2023/04/06 04:59:32;;;;;;;8.43;4.73;;;;;;;1.19;82.81;63040.00;5034076;28;20680;-57
2023/04/06 05:01:58;;;;;;;7.23;5.43;;;;;;;1.34;83.55;63058.22;5034149;28;21190;-56
2023/04/06 05:04:23;;;;;;;7.83;4.93;;;;;;;1.30;82.29;63051.94;5033991;28;20637;-58
2023/04/06 05:06:49;;;;;;;6.97;4.63;;;;;;;1.12;82.61;63029.94;5034054;28;20186;-57
2023/04/06 05:09:14;;;;;;;12.03;6.47;;;;;;;1.16;83.05;63036.78;5016348;28;20214;-60
2023/04/06 05:11:40;;;;;;;8.33;5.53;;;;;;;1.10;82.81;63029.72;5033925;28;20269;-60
2023/04/06 05:14:06;;;;;;;8.93;5.20;;;;;;;1.08;83.72;63027.56;5033751;28;20249;-62
2023/04/06 05:16:33;;;;;;;9.03;5.97;;;;;;;1.12;83.52;63031.88;5033971;28;20265;-58
2023/04/06 05:18:59;;;;;;;9.60;6.07;;;;;;;1.29;83.35;63053.34;5033834;28;20217;-55
2023/04/06 05:21:26;;;;;;;11.97;6.43;;;;;;;1.35;82.44;63056.81;5033923;28;20178;-60
2023/04/06 05:23:51;;;;;;;9.50;6.07;;;;;;;1.28;82.75;63047.28;5033695;28;20577;-58
2023/04/06 05:26:16;;;;;;;11.13;6.10;;;;;;;1.26;83.22;63047.59;5033759;28;20671;-57
2023/04/06 05:28:44;;;;;;;11.13;6.83;;;;;;;1.45;82.61;63068.22;5033374;28;20197;-58
2023/04/06 05:31:10;;;;;;;10.20;6.67;;;;;;;1.52;82.56;63075.25;5033513;28;20787;-58
2023/04/06 05:33:35;;;;;;;12.33;7.47;;;;;;;1.49;83.04;63072.00;5015610;28;20302;-55
2023/04/06 05:36:01;;;;;;;10.17;6.70;;;;;;;1.43;83.08;63063.56;5033640;28;20317;-56
2023/04/06 05:38:26;;;;;;;11.43;6.80;;;;;;;1.48;82.85;63071.44;5033475;28;20244;-57
2023/04/06 05:40:51;;;;;;;14.07;6.97;;;;;;;1.56;83.14;63080.13;5033666;28;20210;-55
2023/04/06 05:43:17;;;;;;;11.47;6.13;;;;;;;1.46;83.47;63069.28;5033668;28;20204;-56
2023/04/06 05:45:45;;;;;;;7.37;5.53;;;;;;;1.31;84.72;63055.50;5033514;28;20206;-56
2023/04/06 05:48:10;;;;;;;10.50;6.60;;;;;;;1.29;85.31;63050.31;5033433;28;20187;-55
2023/04/06 05:50:36;;;;;;;9.90;6.53;;;;;;;1.28;85.41;63049.78;5033270;28;20221;-59
2023/04/06 05:53:01;;;;;;;8.57;5.83;;;;;;;1.28;85.49;63049.78;5033365;28;20182;-55
2023/04/06 05:55:27;;;;;;;9.37;6.27;;;;;;;1.80;87.05;63108.09;5033746;28;20250;-55
2023/04/06 05:57:53;;;;;;;11.20;7.07;;;;;;;1.46;86.39;63069.28;5033285;28;20185;-58
2023/04/06 06:00:19;;;;;;;12.37;7.20;;;;;;;1.48;86.72;63071.44;5032795;28;20210;-59
2023/04/06 06:02:44;;;;;;;9.57;6.97;;;;;;;1.43;86.92;63065.50;5032771;28;20293;-56
2023/04/06 06:05:10;;;;;;;12.57;7.50;;;;;;;1.46;86.58;63068.75;5033260;28;20284;-56
2023/04/06 06:07:36;;;;;;;12.23;7.43;;;;;;;1.45;86.89;63067.66;5033107;28;20174;-55
2023/04/06 06:10:01;;;;;;;10.53;6.97;;;;;;;1.40;86.63;63060.31;5033056;28;20233;-59
2023/04/06 06:12:26;;;;;;;9.83;6.97;;;;;;;1.49;86.73;63072.53;5032996;28;20193;-60
2023/04/06 06:14:52;;;;;;;10.00;7.47;;;;;;;1.49;87.47;63069.53;5032850;28;20221;-59
2023/04/06 06:17:17;;;;;;;11.43;7.80;;;;;;;1.55;86.47;63076.56;5033047;28;20561;-53
2023/04/06 06:19:42;;;;;;;14.07;7.63;;;;;;;1.51;87.10;63074.72;5033189;28;20271;-61
2023/04/06 06:22:08;;;;;;;10.77;7.13;;;;;;;1.60;86.96;63083.91;5033053;28;20189;-57
2023/04/06 06:24:33;;;;;;;12.10;7.73;;;;;;;1.65;87.34;63089.91;5015174;28;20355;-59
2023/04/06 06:26:59;;;;;;;15.00;8.73;;;;;;;1.61;88.10;63080.59;5032793;28;20261;-58
2023/04/06 06:29:24;;;;;;;13.47;8.50;;;;;;;1.68;87.67;63090.66;5032871;28;20216;-56
2023/04/06 06:31:49;;;;;;;15.37;9.37;;;;;;;1.76;88.01;63101.25;5032684;28;20262;-57
2023/04/06 06:34:15;;;;;;;15.73;8.63;;;;;;;1.63;88.14;63087.19;5032641;28;20234;-58
2023/04/06 06:36:40;;;;;;;15.47;9.27;;;;;;;1.77;88.53;63106.78;5032604;28;20190;-55
2023/04/06 06:39:06;;;;;;;14.63;8.77;;;;;;;1.92;88.58;63115.59;5032560;28;20791;-56
2023/04/06 06:41:31;;;;;;;14.97;8.63;;;;;;;1.83;88.49;63108.88;5032876;28;20276;-56
2023/04/06 06:43:57;;;;;;;11.93;7.97;;;;;;;1.96;89.14;63119.94;5032406;28;20300;-58
2023/04/06 06:46:22;;;;;;;14.53;8.50;;;;;;;2.00;86.28;63124.81;5032619;28;20674;-55
2023/04/06 06:48:48;;;;;;;16.47;8.93;;;;;;;2.19;85.99;63147.91;5032389;28;20200;-55
2023/04/06 06:51:13;;;;;;;11.20;7.83;;;;;;;2.13;85.71;63141.41;5032555;28;20194;-59
2023/04/06 06:53:39;;;;;;;14.17;8.43;;;;;;;2.31;86.43;63165.38;5032297;28;20233;-54
2023/04/06 06:56:04;;;;;;;13.07;7.40;;;;;;;2.14;85.52;63141.97;5032243;28;20301;-57
2023/04/06 06:58:30;;;;;;;14.00;7.93;;;;;;;2.05;86.94;63132.19;5014550;28;20204;-55
2023/04/06 07:00:57;;;;;;;13.13;8.20;;;;;;;1.94;86.62;63117.78;5014398;28;20300;-55
2023/04/06 07:03:22;;;;;;;10.40;6.60;;;;;;;1.91;86.71;63117.00;5032028;28;20187;-55
2023/04/06 07:05:58;;;;;;;12.70;7.57;;;;;;;2.03;86.54;63130.00;5032543;28;20225;-59
2023/04/06 07:08:24;;;;;;;14.30;8.97;;;;;;;2.21;86.42;63145.13;5032413;28;20686;-59
2023/04/06 07:10:56;;;;;;;9.80;6.63;;;;;;;2.27;84.14;63153.56;5032275;28;20711;-59
2023/04/06 07:13:22;;;;;;;9.17;6.97;;;;;;;2.14;84.51;63139.47;5031001;28;20210;-59
2023/04/06 07:15:51;;;;;;;12.70;6.97;;;;;;;2.21;83.82;63147.06;5032177;28;20217;-63
2023/04/06 07:18:17;;;;;;;12.73;6.80;;;;;;;2.24;84.30;63155.28;5031990;28;20682;-55
2023/04/06 07:20:43;;;;;;;13.20;8.33;;;;;;;2.27;84.12;63153.56;5031997;28;20206;-60
2023/04/06 07:23:09;;;;;;;12.73;7.23;;;;;;;2.30;83.86;63159.84;5031918;28;20218;-59
2023/04/06 07:25:34;;;;;;;11.23;7.47;;;;;;;2.33;83.14;63162.56;5032294;28;20322;-59
2023/04/06 07:28:00;;;;;;;14.13;7.33;;;;;;;2.46;83.50;63174.72;5031708;28;20240;-55
2023/04/06 07:30:27;;;;;;;12.83;7.80;;;;;;;2.54;82.58;63187.84;5032052;28;20727;-55
2023/04/06 07:32:55;;;;;;;13.23;8.40;;;;;;;2.79;81.24;63212.50;5031719;28;20193;-55
2023/04/06 07:35:21;;;;;;;14.17;8.17;;;;;;;2.81;82.21;63214.66;5031312;28;20214;-54
2023/04/06 07:37:46;;;;;;;9.87;6.47;;;;;;;2.85;81.86;63218.47;5014143;28;20320;-56
2023/04/06 07:40:12;;;;;;;11.13;7.23;;;;;;;2.73;81.16;63205.44;5031445;28;20214;-56
2023/04/06 07:42:37;;;;;;;13.10;8.00;;;;;;;2.96;81.64;63228.47;5031538;28;20218;-57
2023/04/06 07:45:03;;;;;;;10.00;6.83;;;;;;;2.95;80.62;63227.38;5031517;28;20706;-56
2023/04/06 07:47:29;;;;;;;12.10;7.97;;;;;;;2.93;80.79;63227.16;5031686;28;20587;-58
2023/04/06 07:49:57;;;;;;;8.87;6.07;;;;;;;2.67;78.52;63199.47;5031773;28;20205;-56
2023/04/06 07:52:23;;;;;;;10.37;6.90;;;;;;;2.94;79.89;63225.75;5031534;28;20192;-55
2023/04/06 07:54:49;;;;;;;11.60;7.87;;;;;;;2.93;79.97;63227.16;5031572;28;20226;-56
2023/04/06 07:57:14;;;;;;;11.53;7.20;;;;;;;2.95;80.45;63231.81;5031408;28;20205;-58
2023/04/06 07:59:40;;;;;;;11.93;8.43;;;;;;;3.06;79.88;63241.81;5031154;28;20202;-60
2023/04/06 08:02:06;;;;;;;14.63;8.50;;;;;;;3.12;78.79;63245.28;5031244;28;20652;-60
2023/04/06 08:04:31;;;;;;;10.57;7.30;;;;;;;3.24;78.46;63258.88;5031252;28;20675;-57
2023/04/06 08:06:57;;;;;;;11.03;6.93;;;;;;;3.14;77.93;63249.97;5031231;28;20182;-54
2023/04/06 08:09:22;;;;;;;9.40;6.77;;;;;;;2.87;78.52;63221.19;5031318;28;20205;-61
2023/04/06 08:11:48;;;;;;;12.47;7.30;;;;;;;2.93;78.86;63224.69;5031467;28;20197;-60
2023/04/06 08:14:15;;;;;;;12.13;7.83;;;;;;;2.92;79.18;63226.06;5030998;28;20214;-58
2023/04/06 08:16:41;;;;;;;12.83;7.97;;;;;;;3.20;78.37;63257.03;5031025;28;20189;-54
2023/04/06 08:19:10;;;;;;;10.47;6.87;;;;;;;3.11;77.73;63244.75;5031235;28;20221;-54
2023/04/06 08:21:36;;;;;;;13.17;7.50;;;;;;;3.25;77.76;63262.44;5031091;28;20186;-58
2023/04/06 08:24:02;;;;;;;12.73;7.53;;;;;;;3.25;78.41;63262.44;5030745;28;20205;-58
2023/04/06 08:26:28;;;;;;;12.17;8.10;;;;;;;3.49;77.13;63288.00;5030823;28;20194;-59
2023/04/06 08:28:53;;;;;;;11.00;6.67;;;;;;;3.52;76.43;63291.25;5030851;28;20201;-60
2023/04/06 08:31:19;;;;;;;12.00;6.93;;;;;;;3.68;75.79;63308.63;5031144;28;20194;-59
2023/04/06 08:33:45;;;;;;;11.93;6.83;;;;;;;3.62;74.87;63301.56;5013014;28;20218;-55
2023/04/06 08:36:13;;;;;;;11.97;7.43;;;;;;;3.57;75.44;63294.19;5031028;28;20712;-59
2023/04/06 08:38:39;;;;;;;10.77;6.10;;;;;;;3.82;74.95;63320.78;5031010;28;20408;-57
2023/04/06 08:41:13;;;;;;;12.10;6.67;;;;;;;3.97;73.20;63337.13;5031150;28;20182;-60
2023/04/06 08:43:46;;;;;;;8.93;6.17;;;;;;;3.85;72.94;63324.63;5030731;28;20228;-61
2023/04/06 08:46:12;;;;;;;10.37;6.97;;;;;;;3.94;73.80;63336.88;5030923;28;20245;-58
2023/04/06 08:48:43;;;;;;;11.33;6.90;;;;;;;4.13;72.86;63359.50;5030662;28;20194;-55
2023/04/06 08:51:11;;;;;;;8.33;5.90;;;;;;;3.93;70.06;63333.31;5030695;28;20205;-58
2023/04/06 08:53:38;;;;;;;7.67;5.83;;;;;;;3.87;71.13;63328.72;5030344;28;20217;-62
2023/04/06 08:56:04;;;;;;;9.97;6.10;;;;;;;4.04;70.64;63344.72;5030945;28;20202;-56
2023/04/06 08:58:35;;;;;;;8.27;5.17;;;;;;;3.86;68.99;63325.69;5030754;28;20218;-56
2023/04/06 09:01:02;;;;;;;9.43;6.03;;;;;;;3.80;70.35;63321.66;5030647;28;20198;-55
2023/04/06 09:03:30;;;;;;;9.83;6.33;;;;;;;3.96;70.13;63333.53;5030840;28;20681;-58
2023/04/06 09:05:55;;;;;;;9.17;5.87;;;;;;;4.16;69.52;63360.28;5030650;28;20297;-59
2023/04/06 09:08:21;;;;;;;8.23;5.30;;;;;;;4.45;68.44;63386.81;5030654;28;20324;-56
2023/04/06 09:10:48;;;;;;;10.83;6.07;;;;;;;4.61;67.42;63406.69;5030566;28;20214;-55
2023/04/06 09:13:14;;;;;;;7.57;5.53;;;;;;;4.33;65.71;63378.75;5030456;28;20574;-58
2023/04/06 09:15:39;;;;;;;9.30;6.03;;;;;;;4.85;66.91;63434.75;5030418;28;20215;-52
2023/04/06 09:18:05;;;;;;;8.40;6.00;;;;;;;4.68;65.17;63414.31;5030559;28;20187;-54
2023/04/06 09:20:31;;;;;;;7.27;5.30;;;;;;;4.74;65.57;63423.34;5030572;28;20272;-54
2023/04/06 09:23:03;;;;;;;8.37;5.80;;;;;;;4.69;66.05;63417.91;5030626;28;20175;-56
2023/04/06 09:25:29;;;;;;;10.20;5.70;;;;;;;5.05;65.27;63457.06;5030564;28;20218;-56
2023/04/06 09:28:04;;;;;;;10.80;5.60;;;;;;;4.83;64.72;63430.09;5030230;28;20191;-53
2023/04/06 09:30:29;;;;;;;7.73;5.53;;;;;;;5.15;64.80;63464.94;5030347;28;20215;-54
2023/04/06 09:32:57;;;;;;;9.10;6.27;;;;;;;5.08;64.29;63459.78;5030304;28;20256;-54
2023/04/06 09:35:26;;;;;;;8.60;6.13;;;;;;;5.51;65.04;63503.56;5030055;28;20222;-58
2023/04/06 09:37:53;;;;;;;11.87;6.47;;;;;;;5.46;63.83;63498.13;5033455;28;20200;-57
2023/04/06 09:40:19;;;;;;;10.83;6.67;;;;;;;5.21;64.72;63473.97;5033866;28;20223;-56
2023/04/06 09:42:46;;;;;;;10.23;7.10;;;;;;;5.94;65.89;63550.41;5033339;28;20192;-59
2023/04/06 09:45:13;;;;;;;9.30;6.00;;;;;;;5.72;62.87;63523.94;5040783;22;20668;-57
2023/04/06 09:47:42;;;;;;;7.07;5.20;;;;;;;5.58;61.63;63514.22;5033403;28;20197;-59
2023/04/06 09:50:10;;;;;;;7.83;5.70;;;;;;;5.77;61.12;63534.38;5033523;28;20218;-54
2023/04/06 09:52:49;;;;;;;8.63;5.17;;;;;;;5.74;60.06;63531.09;5033233;28;20283;-53
2023/04/06 09:55:40;;;;;;;9.00;5.40;;;;;;;5.69;60.29;63523.16;5033419;28;20231;-54
2023/04/06 09:58:09;;;;;;;8.73;5.77;;;;;;;5.87;60.39;63542.78;5033524;28;20193;-54
2023/04/06 10:00:47;;;;;;;7.77;5.43;;;;;;;5.58;60.91;63511.19;5033028;28;20699;-59
2023/04/06 10:03:47;;;;;;;12.90;5.93;;;;;;;5.54;61.03;63509.88;5033204;28;20666;-58
2023/04/06 10:06:14;;;;;;;7.73;5.63;;;;;;;5.78;59.78;63532.97;5032581;28;20692;-58
2023/04/06 10:08:42;;;;;;;11.80;5.77;;;;;;;5.89;59.03;63545.53;5032883;28;20270;-54
2023/04/06 10:11:10;;;;;;;7.70;5.90;;;;;;;5.65;59.13;63516.31;5032865;28;20197;-55
2023/04/06 10:13:35;;;;;;;8.87;6.40;;;;;;;5.79;60.06;63534.06;5032481;28;20212;-54
2023/04/06 10:16:01;;;;;;;9.27;5.77;;;;;;;5.60;59.79;63515.84;5033072;28;20258;-56
2023/04/06 10:18:27;;;;;;;7.33;5.63;;;;;;;5.89;59.00;63542.47;5033000;28;20698;-55
2023/04/06 10:21:12;;;;;;;6.00;5.03;;;;;;;5.78;58.25;63533.50;5032829;28;20218;-53
2023/04/06 10:24:13;;;;;;;6.20;5.60;;;;;;;5.90;57.68;63546.59;5032754;28;20626;-54
2023/04/06 10:26:38;;;;;;;7.33;5.20;;;;;;;6.12;57.05;63570.03;5022058;28;20274;-55
2023/04/06 10:29:05;;;;;;;8.77;5.67;;;;;;;6.36;56.15;63598.16;5032602;28;20224;-54
2023/04/06 10:31:31;;;;;;;7.73;5.53;;;;;;;6.13;56.22;63570.56;5014936;28;20231;-54
2023/04/06 10:33:58;;;;;;;8.13;5.40;;;;;;;6.49;55.42;63610.34;5032731;28;20321;-55
2023/04/06 10:36:42;;;;;;;7.97;5.03;;;;;;;6.69;57.41;63629.66;5032540;28;20197;-57
2023/04/06 10:39:07;;;;;;;6.77;4.93;;;;;;;6.29;54.57;63588.00;5032810;28;20679;-53
2023/04/06 10:41:41;;;;;;;8.93;5.63;;;;;;;6.50;55.13;63611.44;5032464;28;20196;-52
2023/04/06 10:44:06;;;;;;;10.97;5.80;;;;;;;6.37;55.37;63599.22;5032542;28;20228;-54
2023/04/06 10:46:33;;;;;;;5.93;5.27;;;;;;;7.03;56.64;63671.16;5032347;28;20599;-53
2023/04/06 10:49:11;;;;;;;6.03;4.93;;;;;;;6.85;53.42;63648.50;5032423;28;20352;-54
2023/04/06 10:51:38;;;;;;;8.43;5.50;;;;;;;6.65;53.57;63627.25;5032200;28;20192;-52
2023/04/06 10:54:09;;;;;;;9.30;6.00;;;;;;;6.22;56.34;63578.41;5032234;28;20287;-53
2023/04/06 10:56:38;;;;;;;9.73;6.53;;;;;;;6.62;54.80;63624.53;5032256;28;20191;-52
2023/04/06 10:59:05;;;;;;;8.43;5.70;;;;;;;7.38;53.89;63704.34;5032236;28;20247;-52
2023/04/06 11:01:31;;;;;;;10.27;5.97;;;;;;;6.86;53.79;63647.63;5014281;28;20659;-52
2023/04/06 11:04:00;;;;;;;10.60;6.13;;;;;;;6.83;54.26;63648.84;5031984;28;20364;-53
2023/04/06 11:06:29;;;;;;;6.87;5.37;;;;;;;6.68;54.09;63625.50;5032114;28;20292;-52
2023/04/06 11:08:55;;;;;;;7.67;5.37;;;;;;;6.54;54.06;63615.81;5031958;28;20213;-52
2023/04/06 11:11:23;;;;;;;10.37;5.60;;;;;;;6.65;54.89;63627.78;5031916;28;20227;-56
2023/04/06 11:13:56;;;;;;;6.83;5.67;;;;;;;6.95;54.36;63656.91;5031747;28;20236;-53
2023/04/06 11:16:23;;;;;;;11.10;6.00;;;;;;;6.69;55.33;63629.66;5031875;28;20196;-51
2023/04/06 11:18:52;;;;;;;13.47;5.87;;;;;;;6.97;55.26;63662.13;5031779;28;20216;-55
2023/04/06 11:21:48;;;;;;;8.03;6.10;;;;;;;7.48;54.72;63715.25;5032166;28;20573;-58
2023/04/06 11:24:16;;;;;;;7.27;5.37;;;;;;;7.79;53.91;63750.50;5032029;28;20217;-61
2023/04/06 11:26:48;;;;;;;8.23;5.47;;;;;;;7.11;51.91;63674.34;5031866;28;20675;-57
2023/04/06 11:29:25;;;;;;;7.77;5.70;;;;;;;6.88;53.80;63651.78;5030628;28;20213;-57
2023/04/06 11:31:51;;;;;;;8.20;5.93;;;;;;;6.78;54.56;63644.47;5031994;28;20567;-53
2023/04/06 11:34:22;;;;;;;6.03;5.37;;;;;;;6.82;54.12;63640.22;5031757;28;20228;-54
2023/04/06 11:36:53;;;;;;;10.57;5.90;;;;;;;6.33;56.61;63592.91;5013929;28;20229;-53